createdAt,value
2017-09-06T00:00:46.637Z,968.2
2017-09-06T00:01:48.294Z,968.2
2017-09-06T00:02:49.956Z,968.2
2017-09-06T00:03:51.613Z,968.2
2017-09-06T00:04:53.277Z,968.1
2017-09-06T00:05:54.942Z,968.1
2017-09-06T00:06:57.370Z,968.1
2017-09-06T00:08:00.716Z,968.0
2017-09-06T00:09:03.213Z,968.0
2017-09-06T00:10:04.865Z,968.0
2017-09-06T00:11:07.011Z,968.0
2017-09-06T00:12:08.666Z,968.0
2017-09-06T00:13:10.334Z,968.0
2017-09-06T00:14:11.990Z,968.1
2017-09-06T00:15:13.651Z,968.0
2017-09-06T00:16:16.260Z,968.0
2017-09-06T00:17:17.915Z,968.1
2017-09-06T00:18:19.581Z,968.1
2017-09-06T00:19:22.041Z,968.1
2017-09-06T00:20:24.261Z,968.0
2017-09-06T00:21:25.929Z,968.1
2017-09-06T00:22:27.574Z,968.0
2017-09-06T00:23:29.231Z,968.0
2017-09-06T00:24:30.892Z,968.0
2017-09-06T00:25:32.542Z,968.0
2017-09-06T00:26:35.150Z,968.0
2017-09-06T00:27:37.374Z,968.0
2017-09-06T00:28:39.034Z,967.9
2017-09-06T00:29:41.247Z,968.0
2017-09-06T00:30:42.926Z,968.0
2017-09-06T00:31:45.189Z,967.9
2017-09-06T00:32:46.852Z,968.0
2017-09-06T00:33:48.516Z,967.9
2017-09-06T00:34:50.174Z,968.0
2017-09-06T00:35:51.826Z,967.9
2017-09-06T00:36:53.479Z,967.9
2017-09-06T00:37:55.698Z,967.9
2017-09-06T00:38:57.352Z,967.9
2017-09-06T00:39:59.005Z,967.9
2017-09-06T00:41:01.320Z,967.9
2017-09-06T00:42:02.962Z,967.9
2017-09-06T00:43:04.615Z,967.9
2017-09-06T00:44:06.280Z,967.9
2017-09-06T00:45:07.943Z,967.9
2017-09-06T00:46:09.592Z,967.9
2017-09-06T00:47:12.203Z,967.9
2017-09-06T00:48:13.860Z,967.8
2017-09-06T00:49:15.516Z,967.8
2017-09-06T00:50:17.958Z,967.8
2017-09-06T00:51:19.619Z,967.8
2017-09-06T00:52:21.821Z,967.8
2017-09-06T00:53:24.312Z,967.8
2017-09-06T00:54:26.774Z,967.8
2017-09-06T00:55:29.768Z,967.8
2017-09-06T00:56:32.226Z,967.8
2017-09-06T00:57:34.513Z,967.8
2017-09-06T00:58:36.700Z,967.8
2017-09-06T00:59:38.355Z,967.8
2017-09-06T01:00:40.016Z,967.8
2017-09-06T01:01:42.203Z,967.8
2017-09-06T01:02:43.852Z,967.8
2017-09-06T01:03:45.505Z,967.8
2017-09-06T01:04:47.702Z,967.7
2017-09-06T01:05:49.398Z,967.8
2017-09-06T01:06:51.746Z,967.7
2017-09-06T01:07:53.409Z,967.7
2017-09-06T01:08:55.070Z,967.7
2017-09-06T01:09:56.726Z,967.8
2017-09-06T01:10:58.877Z,967.7
2017-09-06T01:12:00.547Z,967.8
2017-09-06T01:13:02.201Z,967.8
2017-09-06T01:14:03.864Z,967.8
2017-09-06T01:15:05.526Z,967.8
2017-09-06T01:16:07.187Z,967.8
2017-09-06T01:17:09.525Z,967.8
2017-09-06T01:18:11.191Z,967.8
2017-09-06T01:19:13.536Z,967.7
2017-09-06T01:20:15.194Z,967.7
2017-09-06T01:21:17.405Z,967.7
2017-09-06T01:22:19.939Z,967.7
2017-09-06T01:23:21.589Z,967.7
2017-09-06T01:24:23.252Z,967.7
2017-09-06T01:25:24.913Z,967.7
2017-09-06T01:26:26.570Z,967.6
2017-09-06T01:27:28.229Z,967.6
2017-09-06T01:28:29.887Z,967.6
2017-09-06T01:29:31.536Z,967.6
2017-09-06T01:30:34.777Z,967.6
2017-09-06T01:31:37.217Z,967.6
2017-09-06T01:32:38.887Z,967.6
2017-09-06T01:33:41.170Z,967.6
2017-09-06T01:34:43.667Z,967.6
2017-09-06T01:35:45.326Z,967.6
2017-09-06T01:36:46.980Z,967.6
2017-09-06T01:37:48.637Z,967.6
2017-09-06T01:38:50.287Z,967.6
2017-09-06T01:39:52.670Z,967.6
2017-09-06T01:40:54.327Z,967.6
2017-09-06T01:41:55.990Z,967.6
2017-09-06T01:42:57.638Z,967.6
2017-09-06T01:43:59.307Z,967.6
2017-09-06T01:45:00.963Z,967.6
2017-09-06T01:46:03.329Z,967.6
2017-09-06T01:47:05.708Z,967.6
2017-09-06T01:48:08.207Z,967.6
2017-09-06T01:49:09.872Z,967.6
2017-09-06T01:50:12.472Z,967.6
2017-09-06T01:51:14.952Z,967.6
2017-09-06T01:52:15.735Z,967.6
2017-09-06T01:53:17.787Z,967.6
2017-09-06T01:54:19.449Z,967.6
2017-09-06T01:55:23.011Z,967.6
2017-09-06T02:01:58.702Z,967.6
2017-09-06T02:03:00.907Z,967.5
2017-09-06T02:04:02.554Z,967.6
2017-09-06T02:05:06.543Z,967.5
2017-09-06T02:06:08.201Z,967.5
2017-09-06T02:07:09.853Z,967.5
2017-09-06T02:08:11.508Z,967.5
2017-09-06T02:09:13.168Z,967.6
2017-09-06T02:10:14.843Z,967.5
2017-09-06T02:11:17.320Z,967.5
2017-09-06T02:12:18.975Z,967.4
2017-09-06T02:13:22.366Z,967.4
2017-09-06T02:14:24.038Z,967.5
2017-09-06T02:15:26.498Z,967.4
2017-09-06T02:16:28.159Z,967.5
2017-09-06T02:17:29.822Z,967.4
2017-09-06T02:18:32.364Z,967.5
2017-09-06T02:19:34.023Z,967.5
2017-09-06T02:20:35.678Z,967.5
2017-09-06T02:21:37.331Z,967.5
2017-09-06T02:22:40.490Z,967.5
2017-09-06T02:23:42.832Z,967.5
2017-09-06T02:24:44.483Z,967.5
2017-09-06T02:25:46.849Z,967.5
2017-09-06T02:26:48.503Z,967.5
2017-09-06T02:27:50.163Z,967.5
2017-09-06T02:28:52.492Z,967.5
2017-09-06T02:29:54.850Z,967.5
2017-09-06T02:30:57.335Z,967.5
2017-09-06T02:31:58.997Z,967.4
2017-09-06T02:33:01.763Z,967.5
2017-09-06T02:34:03.473Z,967.4
2017-09-06T02:35:05.129Z,967.4
2017-09-06T02:36:06.788Z,967.4
2017-09-06T02:37:08.502Z,967.4
2017-09-06T02:38:10.158Z,967.3
2017-09-06T02:39:13.456Z,967.3
2017-09-06T02:40:15.108Z,967.4
2017-09-06T02:41:17.595Z,967.3
2017-09-06T02:42:19.249Z,967.3
2017-09-06T02:43:21.810Z,967.3
2017-09-06T02:44:23.466Z,967.3
2017-09-06T02:45:25.133Z,967.3
2017-09-06T02:46:28.413Z,967.3
2017-09-06T02:47:30.951Z,967.3
2017-09-06T02:48:32.595Z,967.3
2017-09-06T02:49:34.255Z,967.3
2017-09-06T02:50:37.681Z,967.3
2017-09-06T02:51:39.336Z,967.2
2017-09-06T02:52:40.990Z,967.3
2017-09-06T02:53:43.476Z,967.3
2017-09-06T02:54:45.149Z,967.2
2017-09-06T02:55:47.327Z,967.2
2017-09-06T02:56:48.992Z,967.2
2017-09-06T02:57:51.529Z,967.2
2017-09-06T02:58:53.192Z,967.2
2017-09-06T02:59:55.647Z,967.3
2017-09-06T03:00:57.307Z,967.2
2017-09-06T03:01:58.962Z,967.2
2017-09-06T03:03:00.607Z,967.2
2017-09-06T03:04:02.267Z,967.2
2017-09-06T03:05:06.347Z,967.2
2017-09-06T03:06:08.012Z,967.2
2017-09-06T03:07:09.689Z,967.2
2017-09-06T03:08:11.348Z,967.2
2017-09-06T03:09:13.806Z,967.2
2017-09-06T03:10:15.489Z,967.2
2017-09-06T03:11:17.139Z,967.1
2017-09-06T03:12:19.477Z,967.1
2017-09-06T03:13:22.017Z,967.0
2017-09-06T03:14:23.676Z,967.0
2017-09-06T03:15:26.279Z,967.0
2017-09-06T03:16:26.956Z,967.1
2017-09-06T03:17:29.308Z,967.1
2017-09-06T03:18:31.861Z,967.1
2017-09-06T03:19:33.526Z,967.1
2017-09-06T03:20:35.183Z,967.1
2017-09-06T03:21:37.732Z,967.1
2017-09-06T03:22:40.274Z,967.1
2017-09-06T03:23:42.478Z,967.0
2017-09-06T03:24:44.136Z,967.0
2017-09-06T03:25:45.792Z,966.9
2017-09-06T03:26:47.452Z,966.9
2017-09-06T03:27:49.108Z,966.8
2017-09-06T03:28:50.771Z,966.8
2017-09-06T03:29:52.485Z,966.8
2017-09-06T03:30:54.148Z,966.8
2017-09-06T03:31:57.564Z,966.8
2017-09-06T03:32:59.229Z,966.8
2017-09-06T03:34:00.890Z,966.8
2017-09-06T03:35:03.923Z,966.8
2017-09-06T03:36:05.581Z,966.8
2017-09-06T03:37:07.918Z,966.8
2017-09-06T03:38:09.571Z,966.7
2017-09-06T03:39:11.826Z,966.7
2017-09-06T03:40:13.486Z,966.7
2017-09-06T03:41:15.150Z,966.7
2017-09-06T03:42:18.503Z,966.6
2017-09-06T03:43:20.162Z,966.7
2017-09-06T03:44:21.826Z,966.6
2017-09-06T03:45:23.479Z,966.7
2017-09-06T03:46:25.839Z,966.6
2017-09-06T03:47:28.427Z,966.6
2017-09-06T03:48:30.080Z,966.6
2017-09-06T03:49:31.736Z,966.6
2017-09-06T03:50:33.398Z,966.6
2017-09-06T03:51:37.608Z,966.6
2017-09-06T03:52:39.299Z,966.6
2017-09-06T03:53:40.955Z,966.6
2017-09-06T03:54:42.615Z,966.6
2017-09-06T03:55:45.058Z,966.6
2017-09-06T03:56:46.746Z,966.5
2017-09-06T03:57:48.404Z,966.5
2017-09-06T03:58:50.055Z,966.5
2017-09-06T03:59:51.707Z,966.5
2017-09-06T04:00:53.372Z,966.5
2017-09-06T04:01:55.026Z,966.5
2017-09-06T04:02:57.287Z,966.5
2017-09-06T04:03:58.942Z,966.4
2017-09-06T04:05:02.280Z,966.4
2017-09-06T04:06:03.974Z,966.5
2017-09-06T04:07:05.631Z,966.5
2017-09-06T04:08:07.284Z,966.4
2017-09-06T04:09:08.944Z,966.5
2017-09-06T04:10:11.552Z,966.4
2017-09-06T04:11:13.207Z,966.5
2017-09-06T04:12:14.867Z,966.5
2017-09-06T04:13:17.841Z,966.5
2017-09-06T04:14:19.496Z,966.5
2017-09-06T04:15:21.149Z,966.4
2017-09-06T04:16:22.818Z,966.4
2017-09-06T04:17:24.493Z,966.5
2017-09-06T04:18:26.951Z,966.5
2017-09-06T04:19:29.171Z,966.4
2017-09-06T04:20:32.283Z,966.4
2017-09-06T04:21:33.104Z,966.4
2017-09-06T04:22:34.765Z,966.4
2017-09-06T04:23:36.429Z,966.4
2017-09-06T04:24:38.104Z,966.4
2017-09-06T04:25:39.762Z,966.4
2017-09-06T04:26:41.417Z,966.3
2017-09-06T04:27:43.886Z,966.4
2017-09-06T04:28:46.534Z,966.3
2017-09-06T04:29:48.194Z,966.4
2017-09-06T04:30:52.565Z,966.3
2017-09-06T04:31:54.222Z,966.3
2017-09-06T04:32:55.884Z,966.3
2017-09-06T04:33:58.418Z,966.2
2017-09-06T04:35:00.075Z,966.3
2017-09-06T04:36:01.735Z,966.3
2017-09-06T04:37:04.003Z,966.3
2017-09-06T04:38:05.659Z,966.3
2017-09-06T04:39:07.324Z,966.3
2017-09-06T04:40:08.986Z,966.4
2017-09-06T04:41:11.500Z,966.3
2017-09-06T04:42:13.179Z,966.3
2017-09-06T04:43:14.829Z,966.2
2017-09-06T04:44:17.347Z,966.3
2017-09-06T04:45:20.624Z,966.3
2017-09-06T04:46:22.289Z,966.3
2017-09-06T04:47:25.119Z,966.2
2017-09-06T04:48:26.777Z,966.2
2017-09-06T04:49:28.431Z,966.2
2017-09-06T04:50:30.080Z,966.2
2017-09-06T04:51:32.151Z,966.2
2017-09-06T04:52:33.817Z,966.2
2017-09-06T04:53:36.050Z,966.2
2017-09-06T04:54:37.715Z,966.2
2017-09-06T04:55:39.377Z,966.2
2017-09-06T04:56:41.743Z,966.2
2017-09-06T04:57:44.264Z,966.2
2017-09-06T04:58:47.328Z,966.2
2017-09-06T04:59:48.994Z,966.2
2017-09-06T05:00:51.449Z,966.3
2017-09-06T05:01:53.112Z,966.2
2017-09-06T05:02:54.769Z,966.2
2017-09-06T05:03:56.427Z,966.3
2017-09-06T05:04:58.853Z,966.2
2017-09-06T05:06:01.365Z,966.3
2017-09-06T05:07:03.796Z,966.3
2017-09-06T05:08:06.289Z,966.3
2017-09-06T05:09:07.120Z,966.2
2017-09-06T05:10:09.455Z,966.2
2017-09-06T05:11:11.643Z,966.2
2017-09-06T05:12:13.370Z,966.2
2017-09-06T05:13:17.581Z,966.2
2017-09-06T05:14:19.246Z,966.2
2017-09-06T05:15:22.385Z,966.2
2017-09-06T05:16:24.072Z,966.3
2017-09-06T05:17:25.733Z,966.2
2017-09-06T05:18:27.393Z,966.2
2017-09-06T05:19:29.060Z,966.2
2017-09-06T05:20:30.726Z,966.2
2017-09-06T05:21:33.291Z,966.2
2017-09-06T05:22:34.955Z,966.3
2017-09-06T05:23:37.373Z,966.3
2017-09-06T05:24:39.035Z,966.3
2017-09-06T05:25:40.702Z,966.2
2017-09-06T05:26:42.363Z,966.3
2017-09-06T05:27:44.030Z,966.2
2017-09-06T05:28:45.707Z,966.2
2017-09-06T05:29:47.367Z,966.2
2017-09-06T05:30:49.865Z,966.2
2017-09-06T05:31:51.542Z,966.2
2017-09-06T05:32:53.198Z,966.2
2017-09-06T05:33:54.859Z,966.2
2017-09-06T05:34:57.357Z,966.2
2017-09-06T05:35:59.616Z,966.2
2017-09-06T05:37:02.541Z,966.2
2017-09-06T05:38:05.991Z,966.2
2017-09-06T05:39:08.978Z,966.2
2017-09-06T05:40:10.641Z,966.2
2017-09-06T05:41:12.303Z,966.2
2017-09-06T05:42:14.680Z,966.2
2017-09-06T05:43:16.347Z,966.2
2017-09-06T05:44:18.957Z,966.2
2017-09-06T05:45:21.322Z,966.2
2017-09-06T05:46:22.989Z,966.1
2017-09-06T05:47:24.671Z,966.2
2017-09-06T05:48:26.352Z,966.2
2017-09-06T05:49:28.513Z,966.1
2017-09-06T05:50:30.173Z,966.2
2017-09-06T05:51:31.833Z,966.2
2017-09-06T05:52:33.498Z,966.2
2017-09-06T05:53:35.173Z,966.2
2017-09-06T05:54:37.429Z,966.2
2017-09-06T05:55:39.090Z,966.2
2017-09-06T06:01:33.241Z,966.2
2017-09-06T06:02:34.899Z,966.1
2017-09-06T06:03:37.208Z,966.2
2017-09-06T06:04:38.875Z,966.2
2017-09-06T06:05:41.433Z,966.2
2017-09-06T06:06:42.697Z,966.2
2017-09-06T06:07:44.399Z,966.2
2017-09-06T06:08:46.058Z,966.2
2017-09-06T06:09:47.722Z,966.2
2017-09-06T06:10:49.389Z,966.3
2017-09-06T06:11:51.047Z,966.3
2017-09-06T06:12:52.703Z,966.3
2017-09-06T06:13:54.366Z,966.1
2017-09-06T06:14:56.523Z,966.2
2017-09-06T06:15:58.254Z,966.2
2017-09-06T06:16:59.935Z,966.3
2017-09-06T06:18:01.625Z,966.3
2017-09-06T06:19:03.291Z,966.3
2017-09-06T06:20:05.626Z,966.3
2017-09-06T06:21:07.987Z,966.3
2017-09-06T06:22:10.518Z,966.3
2017-09-06T06:23:12.214Z,966.4
2017-09-06T06:24:14.870Z,966.4
2017-09-06T06:25:16.535Z,966.3
2017-09-06T06:26:18.877Z,966.3
2017-09-06T06:27:20.541Z,966.5
2017-09-06T06:28:22.229Z,966.4
2017-09-06T06:29:23.971Z,966.5
2017-09-06T06:30:26.501Z,966.5
2017-09-06T06:31:28.157Z,966.4
2017-09-06T06:32:30.438Z,966.4
2017-09-06T06:33:31.469Z,966.4
2017-09-06T06:34:33.160Z,966.4
2017-09-06T06:35:34.840Z,966.5
2017-09-06T06:36:38.171Z,966.4
2017-09-06T06:37:39.901Z,966.4
2017-09-06T06:38:41.696Z,966.4
2017-09-06T06:39:43.370Z,966.4
2017-09-06T06:40:45.041Z,966.4
2017-09-06T06:41:46.707Z,966.4
2017-09-06T06:42:48.396Z,966.5
2017-09-06T06:43:50.572Z,966.4
2017-09-06T06:44:53.033Z,966.4
2017-09-06T06:45:55.441Z,966.5
2017-09-06T06:46:56.346Z,966.5
2017-09-06T06:47:58.067Z,966.4
2017-09-06T06:48:59.753Z,966.5
2017-09-06T06:50:01.429Z,966.4
2017-09-06T06:51:03.221Z,966.3
2017-09-06T06:52:04.895Z,966.3
2017-09-06T06:53:07.518Z,966.4
2017-09-06T06:54:09.222Z,966.4
2017-09-06T06:55:10.913Z,966.4
2017-09-06T06:56:12.571Z,966.4
2017-09-06T06:57:14.326Z,966.4
2017-09-06T06:58:16.028Z,966.3
2017-09-06T06:59:18.613Z,966.3
2017-09-06T07:00:21.304Z,966.3
2017-09-06T07:01:22.927Z,966.3
2017-09-06T07:02:24.593Z,966.3
2017-09-06T07:03:26.286Z,966.4
2017-09-06T07:04:27.975Z,966.4
2017-09-06T07:05:30.514Z,966.3
2017-09-06T07:06:32.206Z,966.4
2017-09-06T07:07:33.884Z,966.3
2017-09-06T07:08:35.552Z,966.4
2017-09-06T07:09:38.098Z,966.4
2017-09-06T07:10:39.769Z,966.3
2017-09-06T07:11:41.432Z,966.4
2017-09-06T07:12:43.094Z,966.4
2017-09-06T07:13:44.774Z,966.4
2017-09-06T07:14:46.436Z,966.3
2017-09-06T07:15:48.435Z,966.4
2017-09-06T07:16:50.100Z,966.4
2017-09-06T07:17:51.767Z,966.5
2017-09-06T07:18:53.437Z,966.5
2017-09-06T07:19:55.126Z,966.4
2017-09-06T07:20:57.806Z,966.4
2017-09-06T07:21:59.470Z,966.3
2017-09-06T07:23:01.146Z,966.3
2017-09-06T07:24:02.821Z,966.3
2017-09-06T07:25:04.492Z,966.4
2017-09-06T07:26:06.923Z,966.5
2017-09-06T07:27:08.739Z,966.4
2017-09-06T07:28:11.005Z,966.4
2017-09-06T07:29:12.674Z,966.4
2017-09-06T07:30:14.341Z,966.4
2017-09-06T07:31:16.774Z,966.3
2017-09-06T07:32:19.090Z,966.3
2017-09-06T07:33:20.768Z,966.4
2017-09-06T07:34:22.459Z,966.4
2017-09-06T07:35:24.642Z,966.4
2017-09-06T07:36:27.945Z,966.4
2017-09-06T07:37:29.385Z,966.4
2017-09-06T07:38:32.106Z,966.5
2017-09-06T07:39:33.742Z,966.4
2017-09-06T07:40:35.409Z,966.4
2017-09-06T07:41:37.982Z,966.4
2017-09-06T07:42:39.659Z,966.4
2017-09-06T07:43:41.343Z,966.5
2017-09-06T07:44:43.005Z,966.5
2017-09-06T07:45:44.676Z,966.5
2017-09-06T07:46:46.360Z,966.4
2017-09-06T07:47:48.060Z,966.3
2017-09-06T07:48:49.739Z,966.4
2017-09-06T07:49:52.011Z,966.5
2017-09-06T07:50:53.674Z,966.4
2017-09-06T07:51:56.350Z,966.4
2017-09-06T07:52:59.837Z,966.5
2017-09-06T07:54:01.503Z,966.5
2017-09-06T07:55:03.166Z,966.6
2017-09-06T07:56:06.311Z,966.5
2017-09-06T07:57:07.973Z,966.5
2017-09-06T07:58:09.697Z,966.4
2017-09-06T07:59:11.324Z,966.5
2017-09-06T08:00:12.978Z,966.5
2017-09-06T08:01:15.534Z,966.5
2017-09-06T08:02:18.039Z,966.4
2017-09-06T08:03:19.702Z,966.5
2017-09-06T08:04:22.144Z,966.5
2017-09-06T08:05:23.814Z,966.6
2017-09-06T08:06:26.152Z,966.4
2017-09-06T08:07:28.453Z,966.5
2017-09-06T08:08:29.928Z,966.5
2017-09-06T08:09:31.492Z,966.5
2017-09-06T08:10:33.679Z,966.5
2017-09-06T08:11:35.378Z,966.5
2017-09-06T08:12:38.793Z,966.4
2017-09-06T08:13:40.476Z,966.5
2017-09-06T08:14:42.176Z,966.5
2017-09-06T08:15:43.858Z,966.5
2017-09-06T08:16:46.285Z,966.5
2017-09-06T08:17:47.962Z,966.6
2017-09-06T08:18:50.989Z,966.6
2017-09-06T08:19:51.930Z,966.5
2017-09-06T08:20:53.626Z,966.5
2017-09-06T08:21:55.326Z,966.6
2017-09-06T08:22:57.382Z,966.5
2017-09-06T08:23:59.050Z,966.6
2017-09-06T08:25:01.261Z,966.5
2017-09-06T08:26:03.431Z,966.6
2017-09-06T08:27:06.159Z,966.6
2017-09-06T08:28:07.872Z,966.7
2017-09-06T08:29:09.550Z,966.6
2017-09-06T08:30:15.456Z,966.6
2017-09-06T08:31:17.231Z,966.7
2017-09-06T08:32:19.573Z,966.8
2017-09-06T08:33:22.012Z,966.7
2017-09-06T08:34:23.674Z,966.6
2017-09-06T08:35:25.338Z,966.7
2017-09-06T08:36:27.139Z,966.7
2017-09-06T08:37:29.686Z,966.6
2017-09-06T08:38:31.356Z,966.7
2017-09-06T08:39:33.594Z,966.6
2017-09-06T08:40:35.955Z,966.6
2017-09-06T08:41:38.213Z,966.6
2017-09-06T08:42:40.457Z,966.6
2017-09-06T08:43:42.846Z,966.6
2017-09-06T08:44:45.447Z,966.6
2017-09-06T08:45:47.124Z,966.7
2017-09-06T08:46:50.267Z,966.7
2017-09-06T08:47:51.941Z,966.6
2017-09-06T08:48:53.612Z,966.7
2017-09-06T08:49:55.272Z,966.7
2017-09-06T08:50:57.792Z,966.8
2017-09-06T08:52:00.243Z,966.8
2017-09-06T08:53:02.845Z,966.9
2017-09-06T08:54:04.522Z,966.8
2017-09-06T08:55:07.728Z,966.9
2017-09-06T08:56:09.450Z,967.0
2017-09-06T08:57:11.675Z,967.0
2017-09-06T08:58:13.931Z,966.9
2017-09-06T08:59:15.600Z,966.9
2017-09-06T09:00:18.962Z,967.1
2017-09-06T09:01:20.645Z,967.0
2017-09-06T09:02:22.334Z,967.0
2017-09-06T09:03:25.963Z,967.1
2017-09-06T09:04:26.915Z,967.1
2017-09-06T09:05:28.582Z,967.1
2017-09-06T09:06:31.462Z,967.1
2017-09-06T09:07:33.086Z,967.0
2017-09-06T09:08:35.409Z,967.1
2017-09-06T09:09:37.883Z,967.1
2017-09-06T09:10:39.547Z,967.2
2017-09-06T09:11:41.987Z,967.1
2017-09-06T09:12:43.659Z,967.0
2017-09-06T09:13:45.352Z,967.1
2017-09-06T09:14:47.022Z,967.1
2017-09-06T09:15:48.687Z,967.1
2017-09-06T09:16:50.353Z,967.1
2017-09-06T09:17:52.018Z,967.1
2017-09-06T09:18:53.686Z,967.0
2017-09-06T09:19:58.209Z,967.0
2017-09-06T09:20:59.911Z,967.1
2017-09-06T09:22:02.131Z,967.1
2017-09-06T09:23:05.523Z,967.0
2017-09-06T09:24:07.785Z,967.0
2017-09-06T09:25:09.444Z,967.0
2017-09-06T09:26:11.740Z,967.1
2017-09-06T09:27:13.927Z,967.1
2017-09-06T09:28:18.021Z,967.2
2017-09-06T09:29:19.681Z,967.2
2017-09-06T09:30:22.267Z,967.3
2017-09-06T09:31:23.974Z,967.3
2017-09-06T09:32:25.637Z,967.3
2017-09-06T09:33:27.317Z,967.3
2017-09-06T09:34:28.970Z,967.3
2017-09-06T09:35:31.215Z,967.4
2017-09-06T09:36:32.868Z,967.3
2017-09-06T09:37:34.532Z,967.4
2017-09-06T09:38:36.194Z,967.5
2017-09-06T09:39:38.461Z,967.4
2017-09-06T09:40:40.121Z,967.4
2017-09-06T09:41:41.789Z,967.6
2017-09-06T09:42:43.466Z,967.6
2017-09-06T09:43:45.128Z,967.6
2017-09-06T09:44:46.796Z,967.5
2017-09-06T09:45:48.459Z,967.5
2017-09-06T09:46:50.139Z,967.6
2017-09-06T09:47:51.813Z,967.5
2017-09-06T09:48:53.468Z,967.3
2017-09-06T09:49:55.773Z,967.5
2017-09-06T09:50:58.205Z,967.5
2017-09-06T09:51:59.889Z,967.6
2017-09-06T09:53:02.234Z,967.5
2017-09-06T09:54:03.894Z,967.6
2017-09-06T09:55:06.472Z,967.5
2017-09-06T10:00:59.271Z,967.7
2017-09-06T10:02:00.936Z,967.7
2017-09-06T10:03:02.916Z,967.8
2017-09-06T10:04:05.402Z,967.7
2017-09-06T10:05:07.060Z,967.8
2017-09-06T10:06:09.268Z,967.7
2017-09-06T10:07:11.426Z,967.8
2017-09-06T10:08:13.091Z,967.8
2017-09-06T10:09:14.743Z,967.8
2017-09-06T10:10:16.403Z,967.8
2017-09-06T10:11:18.078Z,967.8
2017-09-06T10:12:21.300Z,967.8
2017-09-06T10:13:23.010Z,967.8
2017-09-06T10:14:24.678Z,967.8
2017-09-06T10:15:27.184Z,967.8
2017-09-06T10:16:29.721Z,967.9
2017-09-06T10:17:32.369Z,967.8
2017-09-06T10:18:34.040Z,967.9
2017-09-06T10:19:35.696Z,967.9
2017-09-06T10:20:38.811Z,967.9
2017-09-06T10:21:40.477Z,967.9
2017-09-06T10:22:42.157Z,967.9
2017-09-06T10:23:43.826Z,967.9
2017-09-06T10:24:45.490Z,968.0
2017-09-06T10:25:47.166Z,968.0
2017-09-06T10:26:48.844Z,968.0
2017-09-06T10:27:50.507Z,968.0
2017-09-06T10:28:52.176Z,968.0
2017-09-06T10:29:53.843Z,968.0
2017-09-06T10:30:55.506Z,968.0
2017-09-06T10:31:57.181Z,968.0
2017-09-06T10:32:58.878Z,968.0
2017-09-06T10:34:00.538Z,968.0
2017-09-06T10:35:02.215Z,968.0
2017-09-06T10:36:04.619Z,968.1
2017-09-06T10:37:06.292Z,968.2
2017-09-06T10:38:08.642Z,968.1
2017-09-06T10:39:10.315Z,968.1
2017-09-06T10:40:11.978Z,968.1
2017-09-06T10:41:13.648Z,968.2
2017-09-06T10:42:17.566Z,968.2
2017-09-06T10:43:18.286Z,968.2
2017-09-06T10:44:19.953Z,968.2
2017-09-06T10:45:21.627Z,968.2
2017-09-06T10:46:23.300Z,968.2
2017-09-06T10:47:24.977Z,968.1
2017-09-06T10:48:26.672Z,968.1
2017-09-06T10:49:28.346Z,968.0
2017-09-06T10:50:30.010Z,968.0
2017-09-06T10:51:31.672Z,968.0
2017-09-06T10:52:33.344Z,968.0
2017-09-06T10:53:35.005Z,968.0
2017-09-06T10:54:38.343Z,968.0
2017-09-06T10:55:40.013Z,968.0
2017-09-06T10:56:41.682Z,967.9
2017-09-06T10:57:43.350Z,968.0
2017-09-06T10:58:45.018Z,967.9
2017-09-06T10:59:48.687Z,967.9
2017-09-06T11:00:50.348Z,968.0
2017-09-06T11:01:52.047Z,967.9
2017-09-06T11:02:53.704Z,967.9
2017-09-06T11:03:56.761Z,967.9
2017-09-06T11:04:58.424Z,967.9
2017-09-06T11:06:00.091Z,968.1
2017-09-06T11:07:02.326Z,968.2
2017-09-06T11:08:04.019Z,968.3
2017-09-06T11:09:05.676Z,968.3
2017-09-06T11:10:07.405Z,968.2
2017-09-06T11:11:09.075Z,968.4
2017-09-06T11:12:12.567Z,968.3
2017-09-06T11:13:14.011Z,967.9
2017-09-06T11:14:15.681Z,968.2
2017-09-06T11:15:18.275Z,968.1
2017-09-06T11:16:19.936Z,968.1
2017-09-06T11:17:22.420Z,968.2
2017-09-06T11:18:25.511Z,968.1
2017-09-06T11:19:27.660Z,968.2
2017-09-06T11:20:30.190Z,968.2
2017-09-06T11:21:31.861Z,968.1
2017-09-06T11:22:33.522Z,968.1
2017-09-06T11:23:35.188Z,968.1
2017-09-06T11:24:37.727Z,968.2
2017-09-06T11:25:39.380Z,968.4
2017-09-06T11:26:41.062Z,968.5
2017-09-06T11:27:42.730Z,968.4
2017-09-06T11:28:44.398Z,968.3
2017-09-06T11:29:46.063Z,968.6
2017-09-06T11:30:48.290Z,968.5
2017-09-06T11:31:49.977Z,968.4
2017-09-06T11:32:51.646Z,968.5
2017-09-06T11:33:54.226Z,968.8
2017-09-06T11:34:55.897Z,968.3
2017-09-06T11:35:58.405Z,968.4
2017-09-06T11:37:00.511Z,968.3
2017-09-06T11:38:02.183Z,968.4
2017-09-06T11:39:03.929Z,968.4
2017-09-06T11:40:05.642Z,968.3
2017-09-06T11:41:08.873Z,968.4
2017-09-06T11:42:10.542Z,968.4
2017-09-06T11:43:12.203Z,968.3
2017-09-06T11:44:13.903Z,968.4
2017-09-06T11:45:16.076Z,968.5
2017-09-06T11:46:18.122Z,968.3
2017-09-06T11:47:21.596Z,968.2
2017-09-06T11:48:24.201Z,968.2
2017-09-06T11:49:25.878Z,968.4
2017-09-06T11:50:28.189Z,968.5
2017-09-06T11:51:29.866Z,968.5
2017-09-06T11:52:32.352Z,968.5
2017-09-06T11:53:34.022Z,968.5
2017-09-06T11:54:35.711Z,968.7
2017-09-06T11:55:37.383Z,968.4
2017-09-06T11:56:39.114Z,968.3
2017-09-06T11:57:40.781Z,968.4
2017-09-06T11:58:42.979Z,968.4
2017-09-06T11:59:45.349Z,968.3
2017-09-06T12:00:47.069Z,968.3
2017-09-06T12:01:48.762Z,968.2
2017-09-06T12:02:50.427Z,968.2
2017-09-06T12:03:52.094Z,968.1
2017-09-06T12:04:53.770Z,968.2
2017-09-06T12:05:56.364Z,968.2
2017-09-06T12:06:58.076Z,968.2
2017-09-06T12:07:59.751Z,968.3
2017-09-06T12:09:01.552Z,968.3
2017-09-06T12:10:03.229Z,968.4
2017-09-06T12:11:04.908Z,968.2
2017-09-06T12:12:06.705Z,968.2
2017-09-06T12:13:08.534Z,968.5
2017-09-06T12:14:10.266Z,968.3
2017-09-06T12:15:11.993Z,968.3
2017-09-06T12:16:15.282Z,968.3
2017-09-06T12:17:17.705Z,968.3
2017-09-06T12:18:19.367Z,968.3
2017-09-06T12:19:21.064Z,968.3
2017-09-06T12:20:22.754Z,968.4
2017-09-06T12:21:25.032Z,968.4
2017-09-06T12:22:28.141Z,968.4
2017-09-06T12:23:30.609Z,968.4
2017-09-06T12:24:33.312Z,968.5
2017-09-06T12:25:35.037Z,968.3
2017-09-06T12:26:37.587Z,968.4
2017-09-06T12:27:38.988Z,968.6
2017-09-06T12:28:41.049Z,968.8
2017-09-06T12:29:42.806Z,968.5
2017-09-06T12:30:44.476Z,968.4
2017-09-06T12:31:46.759Z,968.4
2017-09-06T12:32:48.429Z,968.6
2017-09-06T12:33:50.105Z,968.5
2017-09-06T12:34:51.941Z,968.3
2017-09-06T12:35:54.420Z,968.4
2017-09-06T12:36:56.111Z,968.2
2017-09-06T12:37:59.924Z,968.2
2017-09-06T12:39:02.193Z,968.5
2017-09-06T12:40:03.868Z,968.3
2017-09-06T12:41:07.369Z,968.6
2017-09-06T12:42:09.818Z,968.5
2017-09-06T12:43:11.497Z,968.5
2017-09-06T12:44:13.175Z,968.3
2017-09-06T12:45:14.865Z,968.2
2017-09-06T12:46:16.540Z,968.5
2017-09-06T12:47:18.209Z,968.5
2017-09-06T12:48:19.878Z,968.4
2017-09-06T12:49:21.548Z,968.4
2017-09-06T12:50:23.215Z,968.5
2017-09-06T12:51:24.883Z,968.3
2017-09-06T12:52:27.864Z,968.3
2017-09-06T12:53:29.553Z,968.3
2017-09-06T12:54:32.180Z,968.3
2017-09-06T12:55:33.856Z,968.4
2017-09-06T12:56:36.046Z,968.4
2017-09-06T12:57:37.715Z,968.3
2017-09-06T12:58:39.914Z,968.4
2017-09-06T12:59:41.582Z,968.5
2017-09-06T13:00:43.358Z,968.2
2017-09-06T13:01:45.049Z,968.3
2017-09-06T13:02:46.715Z,968.3
2017-09-06T13:03:48.380Z,968.2
2017-09-06T13:04:50.063Z,968.2
2017-09-06T13:05:51.732Z,968.3
2017-09-06T13:06:53.409Z,968.2
2017-09-06T13:07:55.689Z,968.3
2017-09-06T13:08:57.353Z,968.3
2017-09-06T13:09:59.014Z,968.3
2017-09-06T13:11:01.593Z,968.3
2017-09-06T13:12:03.296Z,968.4
2017-09-06T13:13:04.963Z,968.4
2017-09-06T13:14:07.313Z,968.6
2017-09-06T13:15:09.020Z,968.6
2017-09-06T13:16:10.705Z,968.5
2017-09-06T13:17:12.422Z,968.5
2017-09-06T13:18:14.086Z,968.6
2017-09-06T13:19:15.769Z,968.6
2017-09-06T13:20:19.167Z,968.4
2017-09-06T13:21:21.778Z,968.5
2017-09-06T13:22:23.454Z,968.4
2017-09-06T13:23:25.121Z,968.4
2017-09-06T13:24:26.791Z,968.5
2017-09-06T13:25:29.190Z,968.6
2017-09-06T13:26:31.814Z,968.5
2017-09-06T13:27:33.476Z,968.6
2017-09-06T13:28:35.162Z,968.5
2017-09-06T13:29:38.327Z,968.6
2017-09-06T13:30:39.994Z,968.5
2017-09-06T13:31:41.662Z,968.5
2017-09-06T13:32:43.876Z,968.5
2017-09-06T13:33:45.545Z,968.5